createdAt,value
2018-09-27T00:02:23.135Z,99092.20
2018-09-27T00:04:49.675Z,99082.97
2018-09-27T00:07:16.278Z,99090.43
2018-09-27T00:09:42.734Z,99084.98
2018-09-27T00:12:10.013Z,99080.30
2018-09-27T00:14:36.467Z,99076.11
2018-09-27T00:17:06.989Z,99074.52
2018-09-27T00:19:33.481Z,99072.92
2018-09-27T00:22:00.082Z,99067.66
2018-09-27T00:24:26.570Z,99063.54
2018-09-27T00:26:53.029Z,99065.03
2018-09-27T00:29:19.574Z,99061.19
2018-09-27T00:34:19.228Z,99057.02
2018-09-27T00:36:47.832Z,99051.71
2018-09-27T00:39:14.972Z,99049.39
2018-09-27T00:41:43.221Z,99044.95
2018-09-27T00:44:11.359Z,99051.68
2018-09-27T00:46:38.415Z,99043.34
2018-09-27T00:49:05.617Z,99046.08
2018-09-27T00:51:33.105Z,99039.06
2018-09-27T00:56:32.406Z,99049.02
2018-09-27T00:58:59.906Z,99035.88
2018-09-27T01:01:26.612Z,99030.02
2018-09-27T01:03:54.149Z,99033.23
2018-09-27T01:06:21.145Z,99024.34
2018-09-27T01:08:48.266Z,99023.45
2018-09-27T01:13:48.704Z,99017.64
2018-09-27T01:16:16.013Z,99019.95
2018-09-27T01:18:43.772Z,99016.55
2018-09-27T01:21:12.132Z,99021.41
2018-09-27T01:23:41.121Z,99016.77
2018-09-27T01:26:08.236Z,99019.25
2018-09-27T01:28:35.232Z,99020.07
2018-09-27T01:31:03.264Z,99015.09
2018-09-27T01:33:30.533Z,99008.63
2018-09-27T01:35:57.473Z,99012.45
2018-09-27T01:38:25.841Z,99015.59
2018-09-27T01:40:54.333Z,99013.16
2018-09-27T01:43:21.724Z,99009.77
2018-09-27T01:45:48.850Z,99009.87
2018-09-27T01:48:15.762Z,99003.47
2018-09-27T01:50:43.392Z,99006.09
2018-09-27T01:53:10.736Z,99000.29
2018-09-27T01:55:38.211Z,99000.39
2018-09-27T01:58:06.229Z,98999.82
2018-09-27T02:03:05.952Z,98991.87
2018-09-27T02:05:34.731Z,98992.38
2018-09-27T02:08:01.685Z,98993.80
2018-09-27T02:10:29.473Z,98991.39
2018-09-27T02:12:57.096Z,98984.52
2018-09-27T02:15:24.397Z,98987.45
2018-09-27T02:17:50.922Z,98986.28
2018-09-27T02:22:49.504Z,98976.66
2018-09-27T02:25:16.706Z,98979.17
2018-09-27T02:27:44.235Z,98970.52
2018-09-27T02:30:11.353Z,98974.25
2018-09-27T02:32:39.688Z,98978.50
2018-09-27T02:35:06.171Z,98969.87
2018-09-27T02:40:06.220Z,98971.78
2018-09-27T02:42:32.731Z,98974.83
2018-09-27T02:45:00.331Z,98966.97
2018-09-27T02:47:27.830Z,98967.97
2018-09-27T02:49:54.692Z,98970.35
2018-09-27T02:52:22.040Z,98967.40
2018-09-27T02:54:49.740Z,98965.25
2018-09-27T02:57:17.085Z,98954.80
2018-09-27T02:59:44.098Z,98954.73
2018-09-27T03:02:12.194Z,98950.99
2018-09-27T03:04:39.039Z,98955.95
2018-09-27T03:07:07.735Z,98962.03
2018-09-27T03:09:34.696Z,98964.96
2018-09-27T03:12:02.360Z,98965.58
2018-09-27T03:14:28.970Z,98967.52
2018-09-27T03:16:57.696Z,98962.50
2018-09-27T03:19:25.660Z,98961.95
2018-09-27T03:21:52.096Z,98964.30
2018-09-27T03:24:18.596Z,98966.36
2018-09-27T03:26:45.048Z,98965.05
2018-09-27T03:29:11.585Z,98964.13
2018-09-27T03:31:38.143Z,98961.08
2018-09-27T03:36:36.175Z,98962.63
2018-09-27T03:39:02.673Z,98967.78
2018-09-27T03:41:29.133Z,98968.87
2018-09-27T03:43:55.640Z,98968.98
2018-09-27T03:46:22.371Z,98964.05
2018-09-27T03:48:48.918Z,98955.18
2018-09-27T03:51:15.447Z,98958.06
2018-09-27T03:53:42.125Z,98957.38
2018-09-27T03:56:08.632Z,98951.84
2018-09-27T03:58:35.100Z,98956.08
2018-09-27T04:01:01.590Z,98955.33
2018-09-27T04:03:28.130Z,98952.71
2018-09-27T04:05:55.270Z,98949.34
2018-09-27T04:08:21.863Z,98953.57
2018-09-27T04:10:48.364Z,98958.14
2018-09-27T04:13:14.835Z,98959.13
2018-09-27T04:15:45.781Z,98962.29
2018-09-27T04:18:12.475Z,98956.64
2018-09-27T04:20:38.948Z,98955.80
2018-09-27T04:23:05.725Z,98953.66
2018-09-27T04:25:32.358Z,98958.61
2018-09-27T04:27:58.858Z,98958.43
2018-09-27T04:30:28.892Z,98956.81
2018-09-27T04:32:55.355Z,98962.88
2018-09-27T04:35:21.882Z,98961.99
2018-09-27T04:37:48.437Z,98958.96
2018-09-27T04:40:14.917Z,98959.93
2018-09-27T04:42:41.419Z,98956.75
2018-09-27T04:47:39.869Z,98954.75
2018-09-27T04:50:06.354Z,98955.20
2018-09-27T04:52:32.793Z,98950.80
2018-09-27T04:55:01.182Z,98953.34
2018-09-27T04:57:28.082Z,98947.91
2018-09-27T04:59:54.588Z,98947.34
2018-09-27T05:02:21.293Z,98950.95
2018-09-27T05:04:47.793Z,98953.61
2018-09-27T05:07:14.295Z,98958.70
2018-09-27T05:12:13.058Z,98959.39
2018-09-27T05:14:39.589Z,98959.77
2018-09-27T05:17:06.083Z,98962.85
2018-09-27T05:19:33.059Z,98963.11
2018-09-27T05:21:59.592Z,98959.45
2018-09-27T05:24:26.127Z,98964.39
2018-09-27T05:29:24.523Z,98956.30
2018-09-27T05:31:51.170Z,98957.98
2018-09-27T05:34:17.634Z,98956.37
2018-09-27T05:36:44.625Z,98946.92
2018-09-27T05:39:12.094Z,98952.71
2018-09-27T05:41:38.594Z,98957.98
2018-09-27T05:44:05.617Z,98957.13
2018-09-27T05:46:32.542Z,98950.21
2018-09-27T05:48:59.047Z,98953.64
2018-09-27T05:51:25.566Z,98956.55
2018-09-27T05:53:52.394Z,98955.44
2018-09-27T05:56:18.955Z,98959.73
2018-09-27T05:58:45.460Z,98958.91
2018-09-27T06:01:11.923Z,98960.89
2018-09-27T06:03:38.488Z,98965.27
2018-09-27T06:06:05.677Z,98965.04
2018-09-27T06:08:32.409Z,98962.55
2018-09-27T06:10:59.005Z,98964.03
2018-09-27T06:13:25.530Z,98962.77
2018-09-27T06:15:52.009Z,98958.16
2018-09-27T06:18:18.600Z,98961.84
2018-09-27T06:20:45.115Z,98961.43
2018-09-27T06:23:11.597Z,98964.45
2018-09-27T06:25:38.754Z,98967.98
2018-09-27T06:30:37.914Z,98970.64
2018-09-27T06:33:04.397Z,98966.11
2018-09-27T06:35:30.882Z,98966.16
2018-09-27T06:37:57.534Z,98966.83
2018-09-27T06:40:24.004Z,98966.81
2018-09-27T06:42:50.556Z,98965.25
2018-09-27T06:45:17.033Z,98964.58
2018-09-27T06:47:43.573Z,98967.11
2018-09-27T06:50:10.308Z,98961.73
2018-09-27T06:52:40.207Z,98960.27
2018-09-27T06:55:06.870Z,98949.89
2018-09-27T06:57:33.475Z,98960.16
2018-09-27T07:00:00.078Z,98960.83
2018-09-27T07:02:26.594Z,98959.54
2018-09-27T07:04:53.267Z,98955.08
2018-09-27T07:07:19.808Z,98953.66
2018-09-27T07:09:46.445Z,98948.41
2018-09-27T07:12:14.035Z,98944.43
2018-09-27T07:14:40.895Z,98947.23
2018-09-27T07:17:07.551Z,98948.66
2018-09-27T07:19:34.021Z,98950.79
2018-09-27T07:22:00.530Z,98953.05
2018-09-27T07:24:26.967Z,98946.26
2018-09-27T07:26:53.435Z,98939.77
2018-09-27T07:29:20.149Z,98941.66
2018-09-27T07:31:46.617Z,98942.87
2018-09-27T07:34:13.115Z,98939.70
2018-09-27T07:36:39.703Z,98938.79
2018-09-27T07:39:06.384Z,98939.97
2018-09-27T07:41:32.880Z,98934.41
2018-09-27T07:43:59.402Z,98932.06
2018-09-27T07:46:26.666Z,98939.11
2018-09-27T07:48:53.170Z,98935.31
2018-09-27T07:51:19.734Z,98933.03
2018-09-27T07:53:46.228Z,98936.30
2018-09-27T07:56:12.803Z,98938.42
2018-09-27T07:58:39.291Z,98937.44
2018-09-27T08:01:05.782Z,98932.08
2018-09-27T08:03:32.302Z,98938.33
2018-09-27T08:05:58.824Z,98938.05
2018-09-27T08:08:25.382Z,98935.66
2018-09-27T08:10:51.926Z,98938.62
2018-09-27T08:13:18.447Z,98944.61
2018-09-27T08:15:44.979Z,98944.13
2018-09-27T08:18:11.481Z,98942.60
2018-09-27T08:20:38.136Z,98941.82
2018-09-27T08:23:04.646Z,98941.37
2018-09-27T08:25:31.115Z,98946.48
2018-09-27T08:27:57.653Z,98946.31
2018-09-27T08:30:24.231Z,98946.64
2018-09-27T08:32:50.846Z,98943.54
2018-09-27T08:35:17.356Z,98945.16
2018-09-27T08:37:43.842Z,98939.48
2018-09-27T08:40:11.518Z,98939.17
2018-09-27T08:45:10.257Z,98942.17
2018-09-27T08:47:36.809Z,98934.10
2018-09-27T08:50:03.287Z,98935.05
2018-09-27T08:52:29.832Z,98934.55
2018-09-27T08:54:56.314Z,98935.59
2018-09-27T08:57:22.774Z,98935.16
2018-09-27T08:59:49.284Z,98927.86
2018-09-27T09:02:16.042Z,98914.98
2018-09-27T09:04:42.486Z,98911.39
2018-09-27T09:07:08.963Z,98914.60
2018-09-27T09:09:35.499Z,98904.60
2018-09-27T09:12:02.191Z,98907.08
2018-09-27T09:14:28.809Z,98909.09
2018-09-27T09:16:55.276Z,98910.58
2018-09-27T09:19:21.797Z,98918.16
2018-09-27T09:21:48.365Z,98913.45
2018-09-27T09:24:14.855Z,98910.36
2018-09-27T09:26:41.317Z,98907.69
2018-09-27T09:29:07.871Z,98904.67
2018-09-27T09:31:34.468Z,98903.23
2018-09-27T09:34:00.982Z,98910.65
2018-09-27T09:36:27.616Z,98911.25
2018-09-27T09:38:54.086Z,98914.20
2018-09-27T09:41:20.594Z,98915.16
2018-09-27T09:43:47.218Z,98909.20
2018-09-27T09:46:13.719Z,98910.95
2018-09-27T09:48:40.347Z,98905.50
2018-09-27T09:51:06.887Z,98910.72
2018-09-27T09:53:33.355Z,98911.16
2018-09-27T09:55:59.808Z,98911.69
2018-09-27T09:58:26.317Z,98907.62
2018-09-27T10:00:52.776Z,98911.78
2018-09-27T10:03:19.355Z,98906.28
2018-09-27T10:05:46.644Z,98903.19
2018-09-27T10:08:13.096Z,98906.34
2018-09-27T10:10:39.694Z,98906.52
2018-09-27T10:13:06.208Z,98906.52
2018-09-27T10:15:32.704Z,98896.64
2018-09-27T10:17:59.179Z,98898.11
2018-09-27T10:20:25.957Z,98894.73
2018-09-27T10:22:52.418Z,98898.61
2018-09-27T10:25:18.949Z,98888.33
2018-09-27T10:27:45.449Z,98888.53
2018-09-27T10:30:12.139Z,98886.42
2018-09-27T10:32:38.737Z,98890.20
2018-09-27T10:35:05.263Z,98884.30
2018-09-27T10:37:31.994Z,98882.61
2018-09-27T10:39:58.475Z,98878.25
2018-09-27T10:42:25.044Z,98867.89
2018-09-27T10:44:51.624Z,98865.64
2018-09-27T10:47:18.282Z,98861.09
2018-09-27T10:49:44.900Z,98862.05
2018-09-27T10:52:11.377Z,98859.45
2018-09-27T10:54:37.838Z,98857.33
2018-09-27T10:57:04.437Z,98859.13
2018-09-27T10:59:31.318Z,98859.19
2018-09-27T11:01:58.044Z,98853.45
2018-09-27T11:04:24.624Z,98845.95
2018-09-27T11:06:51.197Z,98846.86
2018-09-27T11:09:18.518Z,98845.26
2018-09-27T11:11:46.215Z,98843.60
2018-09-27T11:14:12.699Z,98844.73
2018-09-27T11:16:39.211Z,98841.45
2018-09-27T11:19:05.959Z,98838.90
2018-09-27T11:21:32.467Z,98830.11
2018-09-27T11:23:58.985Z,98831.20
2018-09-27T11:26:25.590Z,98829.59
2018-09-27T11:28:52.225Z,98817.95
2018-09-27T11:31:18.888Z,98815.11
2018-09-27T11:33:45.467Z,98808.11
2018-09-27T11:36:12.047Z,98805.80
2018-09-27T11:38:38.743Z,98804.41
2018-09-27T11:43:37.082Z,98792.69
2018-09-27T11:46:03.637Z,98787.11
2018-09-27T11:48:30.140Z,98790.49
2018-09-27T11:50:56.656Z,98784.60
2018-09-27T11:53:23.140Z,98786.38
2018-09-27T11:55:49.650Z,98786.32
2018-09-27T11:58:16.388Z,98777.03
2018-09-27T12:00:42.969Z,98775.55
2018-09-27T12:03:09.690Z,98773.66
2018-09-27T12:05:36.336Z,98775.81
2018-09-27T12:08:02.906Z,98772.68
2018-09-27T12:10:29.538Z,98768.95
2018-09-27T12:12:56.161Z,98762.52
2018-09-27T12:15:22.877Z,98759.52
2018-09-27T12:17:49.341Z,98768.20
2018-09-27T12:20:15.911Z,98763.92
2018-09-27T12:22:42.421Z,98758.28
2018-09-27T12:25:08.931Z,98754.44
2018-09-27T12:27:35.441Z,98749.54
2018-09-27T12:30:01.973Z,98748.21
2018-09-27T12:32:28.476Z,98750.79
2018-09-27T12:34:56.017Z,98735.51
2018-09-27T12:37:22.660Z,98732.98
2018-09-27T12:39:49.338Z,98724.50
2018-09-27T12:42:15.988Z,98722.36
2018-09-27T12:44:43.634Z,98727.48
2018-09-27T12:47:10.131Z,98727.47
2018-09-27T12:49:36.646Z,98726.48
2018-09-27T12:52:03.356Z,98716.11
2018-09-27T12:54:29.952Z,98714.88
2018-09-27T12:56:57.109Z,98714.30
2018-09-27T12:59:23.618Z,98713.22
2018-09-27T13:01:50.392Z,98702.94
2018-09-27T13:04:17.017Z,98702.17
2018-09-27T13:06:43.497Z,98698.15
2018-09-27T13:09:10.143Z,98706.34
2018-09-27T13:11:40.642Z,98703.14
2018-09-27T13:14:03.473Z,98699.91
2018-09-27T13:16:29.987Z,98693.51
2018-09-27T13:18:57.942Z,98688.22
2018-09-27T13:21:23.394Z,98684.29
2018-09-27T13:23:49.930Z,98684.28
2018-09-27T13:26:16.466Z,98678.76
2018-09-27T13:28:43.029Z,98675.75
2018-09-27T13:31:09.813Z,98674.30
2018-09-27T13:33:36.492Z,98669.88
2018-09-27T13:36:02.990Z,98662.43
2018-09-27T13:38:29.495Z,98668.35
2018-09-27T13:40:56.076Z,98668.89
2018-09-27T13:43:22.529Z,98663.05
2018-09-27T13:45:50.252Z,98661.06
2018-09-27T13:48:16.838Z,98663.23
2018-09-27T13:50:43.423Z,98657.94
2018-09-27T13:53:10.170Z,98661.48
2018-09-27T13:58:08.838Z,98656.12
2018-09-27T14:00:35.395Z,98652.20
2018-09-27T14:03:01.944Z,98646.22
2018-09-27T14:05:28.628Z,98650.41
2018-09-27T14:07:55.300Z,98644.06
2018-09-27T14:10:21.797Z,98643.31
2018-09-27T14:12:48.398Z,98639.83
2018-09-27T14:15:14.892Z,98638.37
2018-09-27T14:17:41.431Z,98631.04
2018-09-27T14:20:07.973Z,98622.08
2018-09-27T14:22:34.600Z,98626.19
2018-09-27T14:25:01.140Z,98621.65
2018-09-27T14:27:28.207Z,98616.88
2018-09-27T14:29:54.826Z,98628.45
2018-09-27T14:32:21.535Z,98622.91
2018-09-27T14:34:48.263Z,98619.83
2018-09-27T14:37:14.866Z,98621.87
2018-09-27T14:39:41.440Z,98614.36
2018-09-27T14:42:07.940Z,98606.81
2018-09-27T14:44:34.465Z,98608.38
2018-09-27T14:47:01.007Z,98605.32
2018-09-27T14:49:27.728Z,98609.42
2018-09-27T14:51:54.249Z,98607.95
2018-09-27T14:54:20.737Z,98600.15
2018-09-27T14:56:47.385Z,98599.47
2018-09-27T14:59:14.127Z,98599.74
2018-09-27T15:01:40.590Z,98599.45
2018-09-27T15:04:07.301Z,98599.09
2018-09-27T15:06:33.835Z,98600.44
2018-09-27T15:09:01.336Z,98600.26
2018-09-27T15:11:27.892Z,98597.97
2018-09-27T15:13:54.414Z,98599.13
2018-09-27T15:16:20.954Z,98599.24
2018-09-27T15:18:47.630Z,98591.28
2018-09-27T15:21:14.158Z,98589.70
2018-09-27T15:23:41.053Z,98584.19
2018-09-27T15:26:07.704Z,98590.98
2018-09-27T15:28:34.181Z,98586.20
2018-09-27T15:31:00.736Z,98579.27
2018-09-27T15:33:28.473Z,98583.37
2018-09-27T15:35:55.030Z,98582.09
2018-09-27T15:38:21.577Z,98578.97
2018-09-27T15:40:48.164Z,98580.69
2018-09-27T15:43:14.632Z,98586.73
2018-09-27T15:45:41.265Z,98582.50
2018-09-27T15:48:07.889Z,98580.78
2018-09-27T15:50:34.423Z,98575.73
2018-09-27T15:53:00.945Z,98571.90
2018-09-27T15:55:27.489Z,98568.70
2018-09-27T15:57:54.054Z,98569.24
2018-09-27T16:00:20.787Z,98567.36
2018-09-27T16:02:47.354Z,98570.17
2018-09-27T16:05:13.845Z,98567.72
2018-09-27T16:07:40.340Z,98570.09
2018-09-27T16:10:06.905Z,98566.38
2018-09-27T16:12:33.491Z,98557.80
2018-09-27T16:15:00.551Z,98565.12
2018-09-27T16:17:28.213Z,98572.28
2018-09-27T16:19:54.894Z,98567.91
2018-09-27T16:22:21.370Z,98566.98
2018-09-27T16:24:47.875Z,98560.98
2018-09-27T16:27:14.458Z,98563.00
2018-09-27T16:29:40.983Z,98560.69
2018-09-27T16:32:07.601Z,98559.66
2018-09-27T16:34:34.165Z,98562.83
2018-09-27T16:37:00.794Z,98565.41
2018-09-27T16:39:27.301Z,98559.48
2018-09-27T16:41:53.801Z,98554.73
2018-09-27T16:44:20.392Z,98551.92
2018-09-27T16:46:46.966Z,98549.38
2018-09-27T16:49:13.591Z,98550.30
2018-09-27T16:51:40.179Z,98551.55
2018-09-27T16:54:06.733Z,98545.57
2018-09-27T16:56:33.284Z,98541.91
2018-09-27T16:59:00.840Z,98540.23
2018-09-27T17:01:27.453Z,98540.45
2018-09-27T17:03:54.055Z,98541.96
2018-09-27T17:06:20.545Z,98541.44
2018-09-27T17:08:47.463Z,98537.45
2018-09-27T17:11:14.020Z,98539.38
2018-09-27T17:13:40.706Z,98538.66
2018-09-27T17:16:07.268Z,98535.61
2018-09-27T17:18:33.851Z,98542.98
2018-09-27T17:21:01.108Z,98534.25
2018-09-27T17:23:27.675Z,98541.73
2018-09-27T17:25:54.451Z,98540.97
2018-09-27T17:28:21.009Z,98533.77
2018-09-27T17:30:47.558Z,98539.16
2018-09-27T17:33:14.102Z,98541.19
2018-09-27T17:35:40.819Z,98538.23
2018-09-27T17:38:07.546Z,98538.25
2018-09-27T17:40:35.057Z,98538.02
2018-09-27T17:43:01.739Z,98532.72
2018-09-27T17:45:28.266Z,98530.37
2018-09-27T17:47:54.774Z,98537.41
2018-09-27T17:50:21.302Z,98530.06
2018-09-27T17:52:48.561Z,98536.27
2018-09-27T17:55:15.165Z,98528.89
2018-09-27T17:57:41.681Z,98533.28
2018-09-27T18:00:08.190Z,98533.28
2018-09-27T18:02:34.850Z,98535.34
2018-09-27T18:05:01.665Z,98532.77
2018-09-27T18:07:28.387Z,98533.55
2018-09-27T18:09:55.100Z,98533.72
2018-09-27T18:12:21.641Z,98540.88
2018-09-27T18:14:48.172Z,98542.41
2018-09-27T18:17:14.641Z,98533.25
2018-09-27T18:19:41.632Z,98539.92
2018-09-27T18:22:08.266Z,98537.95
2018-09-27T18:24:35.644Z,98539.48
2018-09-27T18:27:02.167Z,98538.44
2018-09-27T18:29:29.744Z,98541.95
2018-09-27T18:31:56.282Z,98546.53
2018-09-27T18:34:22.737Z,98539.14
2018-09-27T18:36:50.371Z,98532.72
2018-09-27T18:39:16.879Z,98535.01
2018-09-27T18:41:43.410Z,98529.55
2018-09-27T18:44:11.443Z,98528.70
2018-09-27T18:46:37.951Z,98520.97
2018-09-27T18:49:04.492Z,98515.57
2018-09-27T18:51:32.041Z,98515.05
2018-09-27T18:53:58.564Z,98513.06
2018-09-27T18:56:25.074Z,98512.25
2018-09-27T18:58:51.557Z,98509.09
2018-09-27T19:01:18.050Z,98507.42
2018-09-27T19:03:44.527Z,98504.09
2018-09-27T19:06:11.280Z,98493.44
2018-09-27T19:08:37.893Z,98497.16
2018-09-27T19:11:04.473Z,98499.04
2018-09-27T19:13:32.130Z,98494.38
2018-09-27T19:15:58.577Z,98494.55
2018-09-27T19:18:25.153Z,98489.47
2018-09-27T19:20:51.750Z,98481.86
2018-09-27T19:23:18.478Z,98481.37
2018-09-27T19:25:45.008Z,98472.84
2018-09-27T19:28:11.554Z,98467.73
2018-09-27T19:30:38.041Z,98470.11
2018-09-27T19:33:04.628Z,98473.83
2018-09-27T19:38:03.607Z,98462.98
2018-09-27T19:40:30.276Z,98468.23
2018-09-27T19:42:56.753Z,98460.15
2018-09-27T19:45:23.287Z,98457.45
2018-09-27T19:47:49.815Z,98457.38
2018-09-27T19:50:16.340Z,98453.96
2018-09-27T19:52:42.842Z,98449.92
2018-09-27T19:55:09.343Z,98440.88
2018-09-27T19:57:35.852Z,98445.97
2018-09-27T20:00:03.346Z,98453.02
2018-09-27T20:02:29.943Z,98452.03
2018-09-27T20:04:56.364Z,98447.16
2018-09-27T20:07:22.883Z,98457.53
2018-09-27T20:09:49.386Z,98443.92
2018-09-27T20:12:15.868Z,98445.79
2018-09-27T20:14:42.386Z,98442.16
2018-09-27T20:17:09.059Z,98439.84
2018-09-27T20:19:36.217Z,98442.41
2018-09-27T20:22:02.878Z,98445.11
2018-09-27T20:24:29.477Z,98439.23
2018-09-27T20:26:55.961Z,98439.69
2018-09-27T20:29:23.143Z,98437.77
2018-09-27T20:31:49.652Z,98437.91
2018-09-27T20:34:16.313Z,98428.21
2018-09-27T20:36:43.374Z,98429.70
2018-09-27T20:39:09.890Z,98424.05
2018-09-27T20:41:36.347Z,98422.00
2018-09-27T20:44:02.989Z,98413.89
2018-09-27T20:46:29.564Z,98416.93
2018-09-27T20:48:56.079Z,98413.61
2018-09-27T20:51:22.621Z,98417.72
2018-09-27T20:53:49.094Z,98419.55
2018-09-27T20:56:15.609Z,98420.22
2018-09-27T20:58:43.347Z,98415.97
2018-09-27T21:01:09.854Z,98412.38
2018-09-27T21:03:36.359Z,98411.58
2018-09-27T21:06:03.259Z,98404.80
2018-09-27T21:08:29.764Z,98405.01
2018-09-27T21:10:56.237Z,98396.84
2018-09-27T21:13:22.717Z,98396.17
2018-09-27T21:15:49.232Z,98395.85
2018-09-27T21:18:15.753Z,98394.55
2018-09-27T21:20:42.445Z,98394.48
2018-09-27T21:23:08.946Z,98391.56
2018-09-27T21:25:35.489Z,98388.36
2018-09-27T21:28:01.985Z,98389.53
2018-09-27T21:30:28.463Z,98389.33
2018-09-27T21:32:54.971Z,98384.78
2018-09-27T21:35:23.211Z,98389.25
2018-09-27T21:37:49.809Z,98379.93
2018-09-27T21:40:16.334Z,98377.48
2018-09-27T21:42:42.811Z,98381.28
2018-09-27T21:45:09.254Z,98383.41
2018-09-27T21:47:36.724Z,98381.73
2018-09-27T21:50:03.372Z,98380.89
2018-09-27T21:52:29.896Z,98373.00
2018-09-27T21:54:56.395Z,98376.96
2018-09-27T21:57:22.951Z,98370.76
2018-09-27T21:59:49.449Z,98371.94
2018-09-27T22:02:16.819Z,98370.27
2018-09-27T22:04:43.376Z,98370.42
2018-09-27T22:07:09.841Z,98368.53
2018-09-27T22:09:36.339Z,98366.44
2018-09-27T22:12:02.853Z,98362.58
2018-09-27T22:14:29.312Z,98368.93
2018-09-27T22:16:55.949Z,98367.16
2018-09-27T22:19:23.545Z,98362.89
2018-09-27T22:21:50.580Z,98361.19
2018-09-27T22:24:17.096Z,98352.50
2018-09-27T22:26:43.572Z,98350.56
2018-09-27T22:29:10.036Z,98347.22
2018-09-27T22:31:36.538Z,98349.30
2018-09-27T22:34:03.013Z,98344.88
2018-09-27T22:36:29.474Z,98341.80
2018-09-27T22:38:55.973Z,98337.72
2018-09-27T22:41:22.764Z,98334.08
2018-09-27T22:43:49.253Z,98327.95
2018-09-27T22:46:15.788Z,98324.03
2018-09-27T22:48:42.371Z,98325.36
2018-09-27T22:51:08.984Z,98318.16
2018-09-27T22:53:35.601Z,98315.45
2018-09-27T22:56:02.117Z,98315.45
2018-09-27T22:58:28.599Z,98311.96
2018-09-27T23:00:55.092Z,98305.36
2018-09-27T23:03:21.876Z,98301.84
2018-09-27T23:05:48.398Z,98298.01
2018-09-27T23:08:14.860Z,98293.84
2018-09-27T23:13:13.373Z,98302.73
2018-09-27T23:15:39.903Z,98300.10
2018-09-27T23:18:06.398Z,98293.94
2018-09-27T23:20:32.904Z,98292.66
2018-09-27T23:22:59.437Z,98284.97
2018-09-27T23:25:25.915Z,98292.00
2018-09-27T23:27:55.596Z,98286.14
2018-09-27T23:30:22.069Z,98290.84
2018-09-27T23:32:48.609Z,98285.28
2018-09-27T23:35:15.162Z,98283.90
2018-09-27T23:37:41.773Z,98280.88
2018-09-27T23:40:09.505Z,98275.22
2018-09-27T23:42:36.058Z,98265.84
2018-09-27T23:45:02.561Z,98266.76
2018-09-27T23:47:29.021Z,98266.73
2018-09-27T23:49:55.629Z,98258.28
2018-09-27T23:52:22.829Z,98264.20
2018-09-27T23:54:49.490Z,98263.86
2018-09-27T23:59:49.229Z,98258.25
